Terminal Aerodrome Forecast
Issued by NWS

Home | Current Version | Previous Version | Graphics & Text | Print | Product List | Glossary On
Versions: 1 2 3 4 5 6 7 8 9 10 11 12 13 14
000
FTUS43 KABR 071700
TAFPIR
TAF
KPIR 071737Z 0718/0818 32017G25KT P6SM SCT060 BKN120
     FM080200 32008KT P6SM SKC
     FM081500 32015KT P6SM FEW040=

USA.gov is the U.S. government's official web portal to all federal, state and local government web resources and services.